sensor_id;sensor_type;location;lat;lon;timestamp;pressure;altitude;pressure_sealevel;temperature;humidity
71465;BME280;59274;49.874;9.154;2022-10-31T00:01:21;100856.84;;;10.77;100.00
71465;BME280;59274;49.874;9.154;2022-10-31T00:03:47;100858.09;;;10.80;100.00
71465;BME280;59274;49.874;9.154;2022-10-31T00:06:13;100863.53;;;10.80;100.00
71465;BME280;59274;49.874;9.154;2022-10-31T00:08:39;100863.06;;;10.78;100.00
71465;BME280;59274;49.874;9.154;2022-10-31T00:11:09;100866.94;;;10.77;100.00
71465;BME280;59274;49.874;9.154;2022-10-31T00:13:34;100864.50;;;10.72;100.00
71465;BME280;59274;49.874;9.154;2022-10-31T00:16:00;100862.19;;;10.74;100.00
71465;BME280;59274;49.874;9.154;2022-10-31T00:18:25;100862.84;;;10.67;100.00
71465;BME280;59274;49.874;9.154;2022-10-31T00:21:02;100870.50;;;10.62;100.00
71465;BME280;59274;49.874;9.154;2022-10-31T00:23:28;100858.78;;;10.57;100.00
71465;BME280;59274;49.874;9.154;2022-10-31T00:25:53;100862.66;;;10.56;100.00
71465;BME280;59274;49.874;9.154;2022-10-31T00:28:19;100867.19;;;10.52;100.00
71465;BME280;59274;49.874;9.154;2022-10-31T00:30:45;100861.63;;;10.45;100.00
71465;BME280;59274;49.874;9.154;2022-10-31T00:33:10;100868.63;;;10.46;100.00
71465;BME280;59274;49.874;9.154;2022-10-31T00:35:36;100865.66;;;10.51;100.00
71465;BME280;59274;49.874;9.154;2022-10-31T00:38:01;100872.06;;;10.43;100.00
71465;BME280;59274;49.874;9.154;2022-10-31T00:40:27;100867.78;;;10.42;100.00
71465;BME280;59274;49.874;9.154;2022-10-31T00:42:52;100874.69;;;10.40;100.00
71465;BME280;59274;49.874;9.154;2022-10-31T00:45:18;100873.13;;;10.39;100.00
71465;BME280;59274;49.874;9.154;2022-10-31T00:47:43;100874.78;;;10.43;100.00
71465;BME280;59274;49.874;9.154;2022-10-31T00:50:09;100881.25;;;10.39;100.00
71465;BME280;59274;49.874;9.154;2022-10-31T00:52:34;100878.81;;;10.34;100.00
71465;BME280;59274;49.874;9.154;2022-10-31T00:55:00;100882.78;;;10.36;100.00
71465;BME280;59274;49.874;9.154;2022-10-31T00:57:26;100877.19;;;10.29;100.00
71465;BME280;59274;49.874;9.154;2022-10-31T00:59:51;100878.22;;;10.25;100.00
71465;BME280;59274;49.874;9.154;2022-10-31T01:02:17;100875.78;;;10.19;100.00
71465;BME280;59274;49.874;9.154;2022-10-31T01:04:42;100880.44;;;10.19;100.00
71465;BME280;59274;49.874;9.154;2022-10-31T01:07:10;100878.38;;;10.16;100.00
71465;BME280;59274;49.874;9.154;2022-10-31T01:09:38;100876.22;;;10.06;100.00
71465;BME280;59274;49.874;9.154;2022-10-31T01:12:03;100884.81;;;10.08;100.00
71465;BME280;59274;49.874;9.154;2022-10-31T01:14:29;100880.53;;;10.07;100.00
71465;BME280;59274;49.874;9.154;2022-10-31T01:16:54;100885.34;;;9.98;100.00
71465;BME280;59274;49.874;9.154;2022-10-31T01:19:20;100886.19;;;10.02;100.00
71465;BME280;59274;49.874;9.154;2022-10-31T01:21:45;100890.69;;;9.94;100.00
71465;BME280;59274;49.874;9.154;2022-10-31T01:24:11;100896.72;;;10.03;100.00
71465;BME280;59274;49.874;9.154;2022-10-31T01:26:36;100885.44;;;10.01;100.00
71465;BME280;59274;49.874;9.154;2022-10-31T01:29:05;100892.00;;;10.00;100.00
71465;BME280;59274;49.874;9.154;2022-10-31T01:31:36;100898.63;;;10.03;100.00
71465;BME280;59274;49.874;9.154;2022-10-31T01:34:03;100894.53;;;9.93;100.00
71465;BME280;59274;49.874;9.154;2022-10-31T01:36:31;100899.19;;;9.93;100.00
71465;BME280;59274;49.874;9.154;2022-10-31T01:38:59;100904.59;;;9.93;100.00
71465;BME280;59274;49.874;9.154;2022-10-31T01:41:28;100897.69;;;9.95;100.00
71465;BME280;59274;49.874;9.154;2022-10-31T01:49:32;100909.69;;;9.78;100.00
71465;BME280;59274;49.874;9.154;2022-10-31T01:52:07;100895.34;;;9.78;100.00
71465;BME280;59274;49.874;9.154;2022-10-31T01:54:39;100895.78;;;9.80;100.00
71465;BME280;59274;49.874;9.154;2022-10-31T01:57:08;100896.72;;;9.88;100.00
71465;BME280;59274;49.874;9.154;2022-10-31T01:59:40;100898.50;;;9.80;100.00
71465;BME280;59274;49.874;9.154;2022-10-31T02:02:08;100896.38;;;9.73;100.00
71465;BME280;59274;49.874;9.154;2022-10-31T02:04:34;100891.72;;;9.74;100.00
71465;BME280;59274;49.874;9.154;2022-10-31T02:07:24;100894.97;;;9.64;100.00
71465;BME280;59274;49.874;9.154;2022-10-31T02:09:51;100891.31;;;9.72;100.00
71465;BME280;59274;49.874;9.154;2022-10-31T02:12:18;100890.75;;;9.66;100.00
71465;BME280;59274;49.874;9.154;2022-10-31T02:14:44;100892.59;;;9.62;100.00
71465;BME280;59274;49.874;9.154;2022-10-31T02:17:10;100888.31;;;9.61;100.00
71465;BME280;59274;49.874;9.154;2022-10-31T02:19:56;100895.31;;;9.62;100.00
71465;BME280;59274;49.874;9.154;2022-10-31T02:41:21;100883.16;;;9.56;100.00
71465;BME280;59274;49.874;9.154;2022-10-31T02:46:54;100886.66;;;9.57;100.00
71465;BME280;59274;49.874;9.154;2022-10-31T02:49:43;100885.94;;;9.60;100.00
71465;BME280;59274;49.874;9.154;2022-10-31T02:52:20;100882.81;;;9.58;100.00
71465;BME280;59274;49.874;9.154;2022-10-31T02:54:47;100877.13;;;9.47;100.00
71465;BME280;59274;49.874;9.154;2022-10-31T02:57:16;100886.94;;;9.52;100.00
71465;BME280;59274;49.874;9.154;2022-10-31T02:59:49;100882.97;;;9.49;100.00
71465;BME280;59274;49.874;9.154;2022-10-31T03:04:56;100878.88;;;9.55;100.00
71465;BME280;59274;49.874;9.154;2022-10-31T03:07:34;100875.91;;;9.60;100.00
71465;BME280;59274;49.874;9.154;2022-10-31T03:10:14;100879.66;;;9.56;100.00
71465;BME280;59274;49.874;9.154;2022-10-31T03:15:43;100878.00;;;9.51;100.00
71465;BME280;59274;49.874;9.154;2022-10-31T03:18:15;100874.84;;;9.49;100.00
71465;BME280;59274;49.874;9.154;2022-10-31T03:20:51;100887.28;;;9.50;100.00
71465;BME280;59274;49.874;9.154;2022-10-31T03:23:21;100875.47;;;9.42;100.00
71465;BME280;59274;49.874;9.154;2022-10-31T03:25:48;100880.97;;;9.46;100.00
71465;BME280;59274;49.874;9.154;2022-10-31T03:28:18;100884.38;;;9.43;100.00
71465;BME280;59274;49.874;9.154;2022-10-31T03:30:49;100879.19;;;9.38;100.00
71465;BME280;59274;49.874;9.154;2022-10-31T03:33:17;100879.91;;;9.35;100.00
71465;BME280;59274;49.874;9.154;2022-10-31T03:35:47;100876.66;;;9.29;100.00
71465;BME280;59274;49.874;9.154;2022-10-31T03:38:14;100878.94;;;9.27;100.00
71465;BME280;59274;49.874;9.154;2022-10-31T03:40:41;100870.00;;;9.27;100.00
71465;BME280;59274;49.874;9.154;2022-10-31T03:43:14;100873.06;;;9.25;100.00
71465;BME280;59274;49.874;9.154;2022-10-31T03:45:45;100873.69;;;9.34;100.00
71465;BME280;59274;49.874;9.154;2022-10-31T03:48:13;100877.00;;;9.28;100.00
71465;BME280;59274;49.874;9.154;2022-10-31T03:53:33;100873.50;;;9.27;100.00
71465;BME280;59274;49.874;9.154;2022-10-31T03:58:48;100878.00;;;9.35;100.00
71465;BME280;59274;49.874;9.154;2022-10-31T04:01:21;100867.81;;;9.32;100.00
71465;BME280;59274;49.874;9.154;2022-10-31T04:03:47;100866.63;;;9.30;100.00
71465;BME280;59274;49.874;9.154;2022-10-31T04:06:15;100868.97;;;9.31;100.00
71465;BME280;59274;49.874;9.154;2022-10-31T04:08:48;100875.88;;;9.29;100.00
71465;BME280;59274;49.874;9.154;2022-10-31T04:11:18;100873.97;;;9.29;100.00
71465;BME280;59274;49.874;9.154;2022-10-31T04:13:46;100871.25;;;9.29;100.00
71465;BME280;59274;49.874;9.154;2022-10-31T04:16:13;100869.31;;;9.30;100.00
71465;BME280;59274;49.874;9.154;2022-10-31T04:18:40;100866.50;;;9.26;100.00
71465;BME280;59274;49.874;9.154;2022-10-31T04:21:07;100865.03;;;9.29;100.00
71465;BME280;59274;49.874;9.154;2022-10-31T04:23:34;100869.66;;;9.28;100.00
71465;BME280;59274;49.874;9.154;2022-10-31T04:25:59;100857.25;;;9.27;100.00
71465;BME280;59274;49.874;9.154;2022-10-31T04:28:25;100866.50;;;9.26;100.00
71465;BME280;59274;49.874;9.154;2022-10-31T04:30:51;100869.16;;;9.23;100.00
71465;BME280;59274;49.874;9.154;2022-10-31T04:33:17;100862.22;;;9.25;100.00
71465;BME280;59274;49.874;9.154;2022-10-31T04:35:43;100854.53;;;9.27;100.00
71465;BME280;59274;49.874;9.154;2022-10-31T04:38:08;100856.00;;;9.25;100.00
71465;BME280;59274;49.874;9.154;2022-10-31T04:40:34;100864.84;;;9.22;100.00
71465;BME280;59274;49.874;9.154;2022-10-31T04:42:59;100852.88;;;9.23;100.00
71465;BME280;59274;49.874;9.154;2022-10-31T04:45:25;100850.69;;;9.28;100.00
71465;BME280;59274;49.874;9.154;2022-10-31T04:47:50;100854.88;;;9.26;100.00
71465;BME280;59274;49.874;9.154;2022-10-31T04:50:16;100850.50;;;9.21;100.00
71465;BME280;59274;49.874;9.154;2022-10-31T04:52:42;100845.88;;;9.22;100.00
71465;BME280;59274;49.874;9.154;2022-10-31T04:55:09;100851.78;;;9.12;100.00
71465;BME280;59274;49.874;9.154;2022-10-31T04:57:46;100845.34;;;9.16;100.00
71465;BME280;59274;49.874;9.154;2022-10-31T05:00:13;100840.34;;;9.18;100.00
71465;BME280;59274;49.874;9.154;2022-10-31T05:02:50;100843.00;;;9.15;100.00
71465;BME280;59274;49.874;9.154;2022-10-31T05:05:18;100843.78;;;9.15;100.00
71465;BME280;59274;49.874;9.154;2022-10-31T05:07:45;100849.88;;;9.12;100.00
71465;BME280;59274;49.874;9.154;2022-10-31T05:10:14;100843.41;;;9.17;100.00
71465;BME280;59274;49.874;9.154;2022-10-31T05:12:47;100849.97;;;9.16;100.00
71465;BME280;59274;49.874;9.154;2022-10-31T05:15:14;100836.06;;;9.17;100.00
71465;BME280;59274;49.874;9.154;2022-10-31T05:17:40;100839.03;;;9.12;100.00
71465;BME280;59274;49.874;9.154;2022-10-31T05:20:05;100832.38;;;9.10;100.00
71465;BME280;59274;49.874;9.154;2022-10-31T05:22:31;100830.38;;;9.07;100.00
71465;BME280;59274;49.874;9.154;2022-10-31T05:24:57;100831.63;;;9.09;100.00
71465;BME280;59274;49.874;9.154;2022-10-31T05:27:22;100831.63;;;9.09;100.00
71465;BME280;59274;49.874;9.154;2022-10-31T05:29:47;100841.56;;;9.05;100.00
71465;BME280;59274;49.874;9.154;2022-10-31T05:32:13;100840.09;;;9.08;100.00
71465;BME280;59274;49.874;9.154;2022-10-31T05:34:38;100839.44;;;8.98;100.00
71465;BME280;59274;49.874;9.154;2022-10-31T05:37:04;100839.56;;;9.02;100.00
71465;BME280;59274;49.874;9.154;2022-10-31T05:39:29;100847.31;;;9.03;100.00
71465;BME280;59274;49.874;9.154;2022-10-31T05:41:55;100838.78;;;9.01;100.00
71465;BME280;59274;49.874;9.154;2022-10-31T05:44:20;100845.75;;;9.02;100.00
71465;BME280;59274;49.874;9.154;2022-10-31T05:46:46;100849.50;;;8.98;100.00
71465;BME280;59274;49.874;9.154;2022-10-31T05:49:12;100839.19;;;9.03;100.00
71465;BME280;59274;49.874;9.154;2022-10-31T05:51:37;100846.16;;;8.89;100.00
71465;BME280;59274;49.874;9.154;2022-10-31T05:54:03;100838.38;;;8.87;100.00
71465;BME280;59274;49.874;9.154;2022-10-31T05:56:29;100851.13;;;8.87;100.00
71465;BME280;59274;49.874;9.154;2022-10-31T05:58:54;100850.22;;;8.83;100.00
71465;BME280;59274;49.874;9.154;2022-10-31T06:01:20;100851.03;;;8.83;100.00
71465;BME280;59274;49.874;9.154;2022-10-31T06:03:45;100849.69;;;8.77;100.00
71465;BME280;59274;49.874;9.154;2022-10-31T06:06:10;100838.06;;;8.77;100.00
71465;BME280;59274;49.874;9.154;2022-10-31T06:08:36;100843.75;;;8.72;100.00
71465;BME280;59274;49.874;9.154;2022-10-31T06:11:02;100840.13;;;8.68;100.00
71465;BME280;59274;49.874;9.154;2022-10-31T06:13:27;100837.88;;;8.70;100.00
71465;BME280;59274;49.874;9.154;2022-10-31T06:15:52;100840.06;;;8.64;100.00
71465;BME280;59274;49.874;9.154;2022-10-31T06:18:18;100845.47;;;8.64;100.00
71465;BME280;59274;49.874;9.154;2022-10-31T06:20:43;100838.59;;;8.67;100.00
71465;BME280;59274;49.874;9.154;2022-10-31T06:23:09;100850.03;;;8.76;100.00
71465;BME280;59274;49.874;9.154;2022-10-31T06:25:34;100852.47;;;8.65;100.00
71465;BME280;59274;49.874;9.154;2022-10-31T06:28:00;100855.72;;;8.71;100.00
71465;BME280;59274;49.874;9.154;2022-10-31T06:30:26;100851.88;;;8.72;100.00
71465;BME280;59274;49.874;9.154;2022-10-31T06:32:51;100855.72;;;8.71;100.00
71465;BME280;59274;49.874;9.154;2022-10-31T06:35:17;100860.78;;;8.72;100.00
71465;BME280;59274;49.874;9.154;2022-10-31T06:37:43;100856.56;;;8.87;100.00
71465;BME280;59274;49.874;9.154;2022-10-31T06:40:15;100865.47;;;8.87;100.00
71465;BME280;59274;49.874;9.154;2022-10-31T06:42:40;100866.47;;;8.83;100.00
71465;BME280;59274;49.874;9.154;2022-10-31T06:45:06;100863.63;;;8.91;100.00
71465;BME280;59274;49.874;9.154;2022-10-31T06:47:32;100861.59;;;8.88;100.00
71465;BME280;59274;49.874;9.154;2022-10-31T06:49:57;100875.59;;;8.90;100.00
71465;BME280;59274;49.874;9.154;2022-10-31T06:52:22;100865.66;;;8.94;100.00
71465;BME280;59274;49.874;9.154;2022-10-31T06:54:48;100870.97;;;8.91;100.00
71465;BME280;59274;49.874;9.154;2022-10-31T06:57:14;100871.22;;;8.86;100.00
71465;BME280;59274;49.874;9.154;2022-10-31T06:59:39;100876.91;;;8.81;100.00
71465;BME280;59274;49.874;9.154;2022-10-31T07:02:42;100877.44;;;8.86;100.00
71465;BME280;59274;49.874;9.154;2022-10-31T07:05:12;100876.31;;;8.87;100.00
71465;BME280;59274;49.874;9.154;2022-10-31T07:07:38;100872.56;;;8.92;100.00
71465;BME280;59274;49.874;9.154;2022-10-31T07:10:04;100875.47;;;8.99;100.00
71465;BME280;59274;49.874;9.154;2022-10-31T07:12:29;100878.38;;;9.06;100.00
71465;BME280;59274;49.874;9.154;2022-10-31T07:14:54;100881.25;;;9.13;100.00
71465;BME280;59274;49.874;9.154;2022-10-31T07:17:23;100883.53;;;9.11;100.00
71465;BME280;59274;49.874;9.154;2022-10-31T07:19:49;100883.00;;;9.06;100.00
71465;BME280;59274;49.874;9.154;2022-10-31T07:22:14;100880.31;;;9.21;100.00
71465;BME280;59274;49.874;9.154;2022-10-31T07:24:40;100884.63;;;9.22;100.00
71465;BME280;59274;49.874;9.154;2022-10-31T07:27:05;100880.84;;;9.27;100.00
71465;BME280;59274;49.874;9.154;2022-10-31T07:29:30;100894.94;;;9.32;100.00
71465;BME280;59274;49.874;9.154;2022-10-31T07:31:56;100892.66;;;9.34;100.00
71465;BME280;59274;49.874;9.154;2022-10-31T07:34:21;100892.34;;;9.36;100.00
71465;BME280;59274;49.874;9.154;2022-10-31T07:36:47;100882.53;;;9.47;100.00
71465;BME280;59274;49.874;9.154;2022-10-31T07:39:12;100879.78;;;9.31;100.00
71465;BME280;59274;49.874;9.154;2022-10-31T07:41:38;100891.00;;;9.30;100.00
71465;BME280;59274;49.874;9.154;2022-10-31T07:44:03;100881.66;;;9.43;100.00
71465;BME280;59274;49.874;9.154;2022-10-31T07:46:29;100890.41;;;9.52;100.00
71465;BME280;59274;49.874;9.154;2022-10-31T07:48:54;100890.00;;;9.66;100.00
71465;BME280;59274;49.874;9.154;2022-10-31T07:51:20;100886.75;;;9.92;100.00
71465;BME280;59274;49.874;9.154;2022-10-31T07:53:45;100888.84;;;9.98;100.00
71465;BME280;59274;49.874;9.154;2022-10-31T07:56:11;100884.09;;;10.11;100.00
71465;BME280;59274;49.874;9.154;2022-10-31T07:58:36;100870.88;;;10.25;100.00
71465;BME280;59274;49.874;9.154;2022-10-31T08:01:01;100880.31;;;10.31;100.00
71465;BME280;59274;49.874;9.154;2022-10-31T08:03:27;100891.31;;;10.38;100.00
71465;BME280;59274;49.874;9.154;2022-10-31T08:05:52;100885.78;;;10.50;100.00
71465;BME280;59274;49.874;9.154;2022-10-31T08:08:18;100882.75;;;10.71;100.00
71465;BME280;59274;49.874;9.154;2022-10-31T08:10:43;100878.44;;;10.89;100.00
71465;BME280;59274;49.874;9.154;2022-10-31T08:13:11;100882.16;;;11.01;100.00
71465;BME280;59274;49.874;9.154;2022-10-31T08:15:37;100886.72;;;11.16;100.00
71465;BME280;59274;49.874;9.154;2022-10-31T08:18:14;100884.72;;;11.13;100.00
71465;BME280;59274;49.874;9.154;2022-10-31T08:20:41;100881.22;;;11.12;100.00
71465;BME280;59274;49.874;9.154;2022-10-31T08:23:06;100878.59;;;11.38;100.00
71465;BME280;59274;49.874;9.154;2022-10-31T08:25:34;100876.06;;;11.49;100.00
71465;BME280;59274;49.874;9.154;2022-10-31T08:28:00;100877.47;;;11.62;100.00
71465;BME280;59274;49.874;9.154;2022-10-31T08:30:28;100869.59;;;11.80;100.00
71465;BME280;59274;49.874;9.154;2022-10-31T08:33:05;100875.34;;;11.98;100.00
71465;BME280;59274;49.874;9.154;2022-10-31T08:35:32;100870.78;;;12.05;99.84
71465;BME280;59274;49.874;9.154;2022-10-31T08:37:58;100860.53;;;12.22;99.12
71465;BME280;59274;49.874;9.154;2022-10-31T08:40:27;100856.69;;;12.26;100.00
71465;BME280;59274;49.874;9.154;2022-10-31T08:43:01;100849.03;;;12.35;99.58
71465;BME280;59274;49.874;9.154;2022-10-31T08:45:28;100841.31;;;12.41;98.63
71465;BME280;59274;49.874;9.154;2022-10-31T08:47:57;100846.50;;;12.49;99.45
71465;BME280;59274;49.874;9.154;2022-10-31T08:50:23;100844.97;;;12.52;98.33
71465;BME280;59274;49.874;9.154;2022-10-31T08:52:48;100842.31;;;12.59;98.78
71465;BME280;59274;49.874;9.154;2022-10-31T08:55:14;100833.34;;;12.55;98.29
71465;BME280;59274;49.874;9.154;2022-10-31T08:57:39;100832.59;;;12.58;98.42
71465;BME280;59274;49.874;9.154;2022-10-31T09:00:05;100833.41;;;12.62;97.63
71465;BME280;59274;49.874;9.154;2022-10-31T09:02:31;100830.88;;;12.76;97.14
71465;BME280;59274;49.874;9.154;2022-10-31T09:04:56;100830.03;;;12.72;96.71
71465;BME280;59274;49.874;9.154;2022-10-31T09:07:23;100822.72;;;12.80;97.54
71465;BME280;59274;49.874;9.154;2022-10-31T09:09:48;100825.06;;;12.81;97.23
71465;BME280;59274;49.874;9.154;2022-10-31T09:12:13;100822.34;;;12.81;96.80
71465;BME280;59274;49.874;9.154;2022-10-31T09:14:39;100818.56;;;12.93;95.67
71465;BME280;59274;49.874;9.154;2022-10-31T09:17:04;100814.44;;;13.06;94.91
71465;BME280;59274;49.874;9.154;2022-10-31T09:19:30;100811.59;;;12.95;95.34
71465;BME280;59274;49.874;9.154;2022-10-31T09:21:55;100805.06;;;13.04;95.94
71465;BME280;59274;49.874;9.154;2022-10-31T09:24:21;100804.81;;;13.16;95.81
71465;BME280;59274;49.874;9.154;2022-10-31T09:26:47;100803.78;;;13.27;95.42
71465;BME280;59274;49.874;9.154;2022-10-31T09:29:12;100798.63;;;13.22;96.08
71465;BME280;59274;49.874;9.154;2022-10-31T09:31:41;100799.53;;;13.33;95.30
71465;BME280;59274;49.874;9.154;2022-10-31T09:34:06;100794.50;;;13.39;95.03
71465;BME280;59274;49.874;9.154;2022-10-31T09:36:32;100793.81;;;13.49;95.77
71465;BME280;59274;49.874;9.154;2022-10-31T09:38:57;100797.41;;;13.60;94.82
71465;BME280;59274;49.874;9.154;2022-10-31T09:47:14;100792.88;;;13.82;93.81
71465;BME280;59274;49.874;9.154;2022-10-31T09:52:18;100793.38;;;13.98;93.45
71465;BME280;59274;49.874;9.154;2022-10-31T09:54:53;100793.41;;;14.05;92.51
71465;BME280;59274;49.874;9.154;2022-10-31T09:57:35;100782.50;;;14.09;93.70
71465;BME280;59274;49.874;9.154;2022-10-31T10:00:04;100787.97;;;14.09;93.60
71465;BME280;59274;49.874;9.154;2022-10-31T10:05:40;100786.47;;;14.22;93.76
71465;BME280;59274;49.874;9.154;2022-10-31T10:08:13;100786.50;;;14.29;94.40
71465;BME280;59274;49.874;9.154;2022-10-31T10:10:51;100783.41;;;14.34;93.66
71465;BME280;59274;49.874;9.154;2022-10-31T10:14:21;100789.72;;;14.45;93.44
71465;BME280;59274;49.874;9.154;2022-10-31T10:19:45;100790.59;;;14.67;93.16
71465;BME280;59274;49.874;9.154;2022-10-31T10:27:22;100778.56;;;14.97;90.65
71465;BME280;59274;49.874;9.154;2022-10-31T10:29:55;100775.81;;;15.04;90.66
71465;BME280;59274;49.874;9.154;2022-10-31T10:32:26;100764.88;;;15.14;91.64
71465;BME280;59274;49.874;9.154;2022-10-31T10:34:59;100762.56;;;15.27;90.35
71465;BME280;59274;49.874;9.154;2022-10-31T10:37:39;100760.19;;;15.29;90.01
71465;BME280;59274;49.874;9.154;2022-10-31T10:40:13;100759.03;;;15.34;89.66
71465;BME280;59274;49.874;9.154;2022-10-31T10:42:39;100757.06;;;15.38;89.63
71465;BME280;59274;49.874;9.154;2022-10-31T10:45:24;100759.03;;;15.41;89.78
71465;BME280;59274;49.874;9.154;2022-10-31T10:50:42;100750.84;;;15.55;87.20
71465;BME280;59274;49.874;9.154;2022-10-31T10:58:54;100749.25;;;15.68;87.42
71465;BME280;59274;49.874;9.154;2022-10-31T11:01:22;100742.56;;;15.80;88.17
71465;BME280;59274;49.874;9.154;2022-10-31T11:03:47;100728.06;;;15.90;87.38
71465;BME280;59274;49.874;9.154;2022-10-31T11:06:21;100729.19;;;16.03;87.59
71465;BME280;59274;49.874;9.154;2022-10-31T11:08:50;100729.19;;;16.10;86.85
71465;BME280;59274;49.874;9.154;2022-10-31T11:11:24;100719.28;;;16.30;86.03
71465;BME280;59274;49.874;9.154;2022-10-31T11:13:57;100723.19;;;16.36;85.65
71465;BME280;59274;49.874;9.154;2022-10-31T11:18:51;100714.06;;;16.57;86.32
71465;BME280;59274;49.874;9.154;2022-10-31T11:21:30;100717.91;;;16.70;86.80
71465;BME280;59274;49.874;9.154;2022-10-31T11:24:12;100707.31;;;16.72;84.33
71465;BME280;59274;49.874;9.154;2022-10-31T11:26:41;100702.13;;;16.85;82.80
71465;BME280;59274;49.874;9.154;2022-10-31T11:29:21;100698.94;;;16.97;82.92
71465;BME280;59274;49.874;9.154;2022-10-31T11:31:51;100704.72;;;17.06;83.10
71465;BME280;59274;49.874;9.154;2022-10-31T11:34:28;100694.47;;;17.14;83.09
71465;BME280;59274;49.874;9.154;2022-10-31T11:37:42;100693.28;;;17.15;83.49
71465;BME280;59274;49.874;9.154;2022-10-31T11:39:45;100684.97;;;17.22;83.59
71465;BME280;59274;49.874;9.154;2022-10-31T11:42:19;100680.25;;;17.26;83.24
71465;BME280;59274;49.874;9.154;2022-10-31T11:44:46;100673.88;;;17.36;83.83
71465;BME280;59274;49.874;9.154;2022-10-31T11:47:17;100675.34;;;17.44;82.51
71465;BME280;59274;49.874;9.154;2022-10-31T11:49:46;100669.78;;;17.51;83.07
71465;BME280;59274;49.874;9.154;2022-10-31T11:52:26;100671.28;;;17.59;82.23
71465;BME280;59274;49.874;9.154;2022-10-31T11:55:13;100662.59;;;17.68;82.47
71465;BME280;59274;49.874;9.154;2022-10-31T11:57:50;100658.59;;;17.73;80.58
71465;BME280;59274;49.874;9.154;2022-10-31T12:00:36;100658.88;;;17.82;81.25
71465;BME280;59274;49.874;9.154;2022-10-31T12:05:38;100645.09;;;17.85;80.93
71465;BME280;59274;49.874;9.154;2022-10-31T12:08:08;100646.63;;;17.90;81.11
71465;BME280;59274;49.874;9.154;2022-10-31T12:16:12;100626.13;;;17.94;79.97
71465;BME280;59274;49.874;9.154;2022-10-31T12:24:19;100627.09;;;18.11;80.41
71465;BME280;59274;49.874;9.154;2022-10-31T12:37:06;100610.09;;;18.47;78.00
71465;BME280;59274;49.874;9.154;2022-10-31T12:42:33;100604.84;;;18.56;78.74
71465;BME280;59274;49.874;9.154;2022-10-31T12:51:15;100595.69;;;18.62;78.00
71465;BME280;59274;49.874;9.154;2022-10-31T12:53:52;100596.59;;;18.56;76.37
71465;BME280;59274;49.874;9.154;2022-10-31T12:59:04;100582.38;;;18.61;78.68
71465;BME280;59274;49.874;9.154;2022-10-31T13:01:37;100582.00;;;18.59;78.91
71465;BME280;59274;49.874;9.154;2022-10-31T13:04:33;100575.19;;;18.67;77.74
71465;BME280;59274;49.874;9.154;2022-10-31T13:07:04;100574.84;;;18.65;78.16
71465;BME280;59274;49.874;9.154;2022-10-31T13:09:41;100565.38;;;18.66;79.34
71465;BME280;59274;49.874;9.154;2022-10-31T13:12:11;100568.53;;;18.64;77.06
71465;BME280;59274;49.874;9.154;2022-10-31T13:14:47;100564.53;;;18.69;77.30
71465;BME280;59274;49.874;9.154;2022-10-31T13:17:27;100549.78;;;18.59;75.41
71465;BME280;59274;49.874;9.154;2022-10-31T13:20:32;100547.91;;;18.53;76.05
71465;BME280;59274;49.874;9.154;2022-10-31T13:22:54;100551.53;;;18.46;77.40
71465;BME280;59274;49.874;9.154;2022-10-31T13:25:24;100544.59;;;18.38;76.65
71465;BME280;59274;49.874;9.154;2022-10-31T13:28:00;100539.88;;;18.38;77.67
71465;BME280;59274;49.874;9.154;2022-10-31T13:30:30;100541.69;;;18.22;75.43
71465;BME280;59274;49.874;9.154;2022-10-31T13:33:09;100535.31;;;18.28;76.93
71465;BME280;59274;49.874;9.154;2022-10-31T13:46:41;100542.44;;;17.99;78.89
71465;BME280;59274;49.874;9.154;2022-10-31T13:54:45;100528.28;;;17.74;82.30
71465;BME280;59274;49.874;9.154;2022-10-31T13:57:37;100522.00;;;17.73;82.72
71465;BME280;59274;49.874;9.154;2022-10-31T14:00:22;100516.63;;;17.63;83.74
71465;BME280;59274;49.874;9.154;2022-10-31T14:02:51;100516.59;;;17.66;82.13
71465;BME280;59274;49.874;9.154;2022-10-31T14:05:31;100510.75;;;17.64;80.43
71465;BME280;59274;49.874;9.154;2022-10-31T14:08:00;100510.28;;;17.69;81.06
71465;BME280;59274;49.874;9.154;2022-10-31T14:10:33;100506.50;;;17.56;83.67
71465;BME280;59274;49.874;9.154;2022-10-31T14:13:23;100510.34;;;17.66;82.06
71465;BME280;59274;49.874;9.154;2022-10-31T14:16:04;100495.59;;;17.49;82.12
71465;BME280;59274;49.874;9.154;2022-10-31T14:18:33;100489.91;;;17.36;82.39
71465;BME280;59274;49.874;9.154;2022-10-31T14:20:59;100486.75;;;17.38;82.56
71465;BME280;59274;49.874;9.154;2022-10-31T14:28:44;100470.06;;;17.25;85.77
71465;BME280;59274;49.874;9.154;2022-10-31T14:31:44;100473.13;;;17.27;86.57
71465;BME280;59274;49.874;9.154;2022-10-31T14:42:32;100458.22;;;18.98;78.30
71465;BME280;59274;49.874;9.154;2022-10-31T14:45:36;100437.59;;;19.62;74.46
71465;BME280;59274;49.874;9.154;2022-10-31T14:50:52;100435.53;;;19.50;75.12
71465;BME280;59274;49.874;9.154;2022-10-31T14:53:28;100443.41;;;20.16;70.88
71465;BME280;59274;49.874;9.154;2022-10-31T14:55:55;100438.72;;;19.97;70.40
71465;BME280;59274;49.874;9.154;2022-10-31T14:58:30;100451.22;;;19.69;73.44
71465;BME280;59274;49.874;9.154;2022-10-31T15:00:59;100449.56;;;19.36;73.84
71465;BME280;59274;49.874;9.154;2022-10-31T15:03:29;100459.16;;;19.67;71.89
71465;BME280;59274;49.874;9.154;2022-10-31T15:06:00;100465.72;;;19.17;73.20
71465;BME280;59274;49.874;9.154;2022-10-31T15:10:58;100453.47;;;18.59;77.15
71465;BME280;59274;49.874;9.154;2022-10-31T15:13:27;100464.84;;;18.15;78.42
71465;BME280;59274;49.874;9.154;2022-10-31T15:15:54;100470.06;;;17.82;80.54
71465;BME280;59274;49.874;9.154;2022-10-31T15:18:25;100468.88;;;17.53;81.91
71465;BME280;59274;49.874;9.154;2022-10-31T15:20:52;100477.72;;;17.37;81.98